sensor_id;sensor_type;location;lat;lon;timestamp;temperature;humidity
1766;DHT22;880;52.452;8.656;2023-09-30T00:01:15;14.20;99.90
1766;DHT22;880;52.452;8.656;2023-09-30T00:03:42;14.10;99.90
1766;DHT22;880;52.452;8.656;2023-09-30T00:06:10;14.10;99.90
1766;DHT22;880;52.452;8.656;2023-09-30T00:08:37;14.00;99.90
1766;DHT22;880;52.452;8.656;2023-09-30T00:11:06;14.00;99.90
1766;DHT22;880;52.452;8.656;2023-09-30T00:13:33;14.00;99.90
1766;DHT22;880;52.452;8.656;2023-09-30T00:16:00;13.80;99.90
1766;DHT22;880;52.452;8.656;2023-09-30T00:18:27;13.60;99.90
1766;DHT22;880;52.452;8.656;2023-09-30T00:20:54;13.50;99.90
1766;DHT22;880;52.452;8.656;2023-09-30T00:23:21;13.40;99.90
1766;DHT22;880;52.452;8.656;2023-09-30T00:25:48;13.50;99.90
1766;DHT22;880;52.452;8.656;2023-09-30T00:28:17;13.60;99.90
1766;DHT22;880;52.452;8.656;2023-09-30T00:30:45;13.70;99.90
1766;DHT22;880;52.452;8.656;2023-09-30T00:33:14;13.70;99.90
1766;DHT22;880;52.452;8.656;2023-09-30T00:35:41;13.80;99.90
1766;DHT22;880;52.452;8.656;2023-09-30T00:38:08;13.80;99.90
1766;DHT22;880;52.452;8.656;2023-09-30T00:40:37;13.80;99.90
1766;DHT22;880;52.452;8.656;2023-09-30T00:43:04;13.60;99.90
1766;DHT22;880;52.452;8.656;2023-09-30T00:45:32;13.50;99.90
1766;DHT22;880;52.452;8.656;2023-09-30T00:47:59;13.50;99.90
1766;DHT22;880;52.452;8.656;2023-09-30T00:50:26;13.40;99.90
1766;DHT22;880;52.452;8.656;2023-09-30T00:52:55;13.40;99.90
1766;DHT22;880;52.452;8.656;2023-09-30T00:55:22;13.20;99.90
1766;DHT22;880;52.452;8.656;2023-09-30T00:57:50;13.10;99.90
1766;DHT22;880;52.452;8.656;2023-09-30T01:00:17;13.10;99.90
1766;DHT22;880;52.452;8.656;2023-09-30T01:02:46;13.00;99.90
1766;DHT22;880;52.452;8.656;2023-09-30T01:05:13;13.00;99.90
1766;DHT22;880;52.452;8.656;2023-09-30T01:07:40;13.00;99.90
1766;DHT22;880;52.452;8.656;2023-09-30T01:10:07;13.00;99.90
1766;DHT22;880;52.452;8.656;2023-09-30T01:12:35;13.00;99.90
1766;DHT22;880;52.452;8.656;2023-09-30T01:15:02;13.00;99.90
1766;DHT22;880;52.452;8.656;2023-09-30T01:17:34;13.00;99.90
1766;DHT22;880;52.452;8.656;2023-09-30T01:20:01;13.00;99.90
1766;DHT22;880;52.452;8.656;2023-09-30T01:22:33;13.00;99.90
1766;DHT22;880;52.452;8.656;2023-09-30T01:25:00;13.10;99.90
1766;DHT22;880;52.452;8.656;2023-09-30T01:27:27;13.20;99.90
1766;DHT22;880;52.452;8.656;2023-09-30T01:29:54;13.20;99.90
1766;DHT22;880;52.452;8.656;2023-09-30T01:32:21;13.10;99.90
1766;DHT22;880;52.452;8.656;2023-09-30T01:34:48;13.10;99.90
1766;DHT22;880;52.452;8.656;2023-09-30T01:37:15;13.10;99.90
1766;DHT22;880;52.452;8.656;2023-09-30T01:39:42;13.20;99.90
1766;DHT22;880;52.452;8.656;2023-09-30T01:42:11;13.10;99.90
1766;DHT22;880;52.452;8.656;2023-09-30T01:44:38;13.10;99.90
1766;DHT22;880;52.452;8.656;2023-09-30T01:47:05;13.00;99.90
1766;DHT22;880;52.452;8.656;2023-09-30T01:49:32;13.00;99.90
1766;DHT22;880;52.452;8.656;2023-09-30T01:51:59;13.00;99.90
1766;DHT22;880;52.452;8.656;2023-09-30T01:54:27;13.10;99.90
1766;DHT22;880;52.452;8.656;2023-09-30T01:56:56;13.10;99.90
1766;DHT22;880;52.452;8.656;2023-09-30T01:59:24;13.00;99.90
1766;DHT22;880;52.452;8.656;2023-09-30T02:01:51;12.90;99.90
1766;DHT22;880;52.452;8.656;2023-09-30T02:04:18;13.00;99.90
1766;DHT22;880;52.452;8.656;2023-09-30T02:06:45;12.90;99.90
1766;DHT22;880;52.452;8.656;2023-09-30T02:09:12;12.90;99.90
1766;DHT22;880;52.452;8.656;2023-09-30T02:11:39;12.90;99.90
1766;DHT22;880;52.452;8.656;2023-09-30T02:14:09;13.00;99.90
1766;DHT22;880;52.452;8.656;2023-09-30T02:16:39;13.00;99.90
1766;DHT22;880;52.452;8.656;2023-09-30T02:19:06;13.00;99.90
1766;DHT22;880;52.452;8.656;2023-09-30T02:21:33;13.00;99.90
1766;DHT22;880;52.452;8.656;2023-09-30T02:24:01;13.10;99.90
1766;DHT22;880;52.452;8.656;2023-09-30T02:26:29;13.00;99.90
1766;DHT22;880;52.452;8.656;2023-09-30T02:28:56;13.10;99.90
1766;DHT22;880;52.452;8.656;2023-09-30T02:31:23;13.10;99.90
1766;DHT22;880;52.452;8.656;2023-09-30T02:33:50;13.10;99.90
1766;DHT22;880;52.452;8.656;2023-09-30T02:36:17;13.00;99.90
1766;DHT22;880;52.452;8.656;2023-09-30T02:38:45;13.00;99.90
1766;DHT22;880;52.452;8.656;2023-09-30T02:41:13;13.10;99.90
1766;DHT22;880;52.452;8.656;2023-09-30T02:43:42;13.20;99.90
1766;DHT22;880;52.452;8.656;2023-09-30T02:46:09;13.30;99.90
1766;DHT22;880;52.452;8.656;2023-09-30T02:48:36;13.40;99.90
1766;DHT22;880;52.452;8.656;2023-09-30T02:51:03;13.40;99.90
1766;DHT22;880;52.452;8.656;2023-09-30T02:53:30;13.50;99.90
1766;DHT22;880;52.452;8.656;2023-09-30T02:55:58;13.60;99.90
1766;DHT22;880;52.452;8.656;2023-09-30T02:58:26;13.70;99.90
1766;DHT22;880;52.452;8.656;2023-09-30T03:00:54;13.50;99.90
1766;DHT22;880;52.452;8.656;2023-09-30T03:03:21;13.40;99.90
1766;DHT22;880;52.452;8.656;2023-09-30T03:05:48;13.30;99.90
1766;DHT22;880;52.452;8.656;2023-09-30T03:08:16;13.20;99.90
1766;DHT22;880;52.452;8.656;2023-09-30T03:10:43;13.30;99.90
1766;DHT22;880;52.452;8.656;2023-09-30T03:13:10;13.30;99.90
1766;DHT22;880;52.452;8.656;2023-09-30T03:15:37;13.30;99.90
1766;DHT22;880;52.452;8.656;2023-09-30T03:18:05;13.30;99.90
1766;DHT22;880;52.452;8.656;2023-09-30T03:20:32;13.30;99.90
1766;DHT22;880;52.452;8.656;2023-09-30T03:22:59;13.30;99.90
1766;DHT22;880;52.452;8.656;2023-09-30T03:25:27;13.30;99.90
1766;DHT22;880;52.452;8.656;2023-09-30T03:27:57;13.30;99.90
1766;DHT22;880;52.452;8.656;2023-09-30T03:30:24;13.30;99.90
1766;DHT22;880;52.452;8.656;2023-09-30T03:32:51;13.30;99.90
1766;DHT22;880;52.452;8.656;2023-09-30T03:35:18;13.30;99.90
1766;DHT22;880;52.452;8.656;2023-09-30T03:37:46;13.10;99.90
1766;DHT22;880;52.452;8.656;2023-09-30T03:40:14;13.00;99.90
1766;DHT22;880;52.452;8.656;2023-09-30T03:42:47;12.80;99.90
1766;DHT22;880;52.452;8.656;2023-09-30T03:45:16;12.80;99.90
1766;DHT22;880;52.452;8.656;2023-09-30T03:47:44;12.90;99.90
1766;DHT22;880;52.452;8.656;2023-09-30T03:50:12;13.00;99.90
1766;DHT22;880;52.452;8.656;2023-09-30T03:52:42;13.10;99.90
1766;DHT22;880;52.452;8.656;2023-09-30T03:55:16;13.20;99.90
1766;DHT22;880;52.452;8.656;2023-09-30T03:57:48;13.20;99.90
1766;DHT22;880;52.452;8.656;2023-09-30T04:00:16;13.10;99.90
1766;DHT22;880;52.452;8.656;2023-09-30T04:02:46;13.00;99.90
1766;DHT22;880;52.452;8.656;2023-09-30T04:05:20;12.90;99.90
1766;DHT22;880;52.452;8.656;2023-09-30T04:07:58;12.80;99.90
1766;DHT22;880;52.452;8.656;2023-09-30T04:10:25;12.60;99.90
1766;DHT22;880;52.452;8.656;2023-09-30T04:12:52;12.60;99.90
1766;DHT22;880;52.452;8.656;2023-09-30T04:15:21;12.50;99.90
1766;DHT22;880;52.452;8.656;2023-09-30T04:17:48;12.40;99.90
1766;DHT22;880;52.452;8.656;2023-09-30T04:20:16;12.60;99.90
1766;DHT22;880;52.452;8.656;2023-09-30T04:22:47;12.60;99.90
1766;DHT22;880;52.452;8.656;2023-09-30T04:25:16;12.80;99.90
1766;DHT22;880;52.452;8.656;2023-09-30T04:27:43;12.80;99.90
1766;DHT22;880;52.452;8.656;2023-09-30T04:30:11;12.90;99.90
1766;DHT22;880;52.452;8.656;2023-09-30T04:32:38;12.90;99.90
1766;DHT22;880;52.452;8.656;2023-09-30T04:35:06;12.90;99.90
1766;DHT22;880;52.452;8.656;2023-09-30T04:37:37;12.80;99.90
1766;DHT22;880;52.452;8.656;2023-09-30T04:40:06;12.70;99.90
1766;DHT22;880;52.452;8.656;2023-09-30T04:42:42;12.70;99.90
1766;DHT22;880;52.452;8.656;2023-09-30T04:45:11;12.80;99.90
1766;DHT22;880;52.452;8.656;2023-09-30T04:47:47;12.80;99.90
1766;DHT22;880;52.452;8.656;2023-09-30T04:50:17;12.90;99.90
1766;DHT22;880;52.452;8.656;2023-09-30T04:52:44;12.90;99.90
1766;DHT22;880;52.452;8.656;2023-09-30T04:55:12;12.80;99.90
1766;DHT22;880;52.452;8.656;2023-09-30T04:57:43;12.70;99.90
1766;DHT22;880;52.452;8.656;2023-09-30T05:00:16;12.60;99.90
1766;DHT22;880;52.452;8.656;2023-09-30T05:02:45;12.50;99.90
1766;DHT22;880;52.452;8.656;2023-09-30T05:05:13;12.60;99.90
1766;DHT22;880;52.452;8.656;2023-09-30T05:07:41;12.70;99.90
1766;DHT22;880;52.452;8.656;2023-09-30T05:10:09;12.80;99.90
1766;DHT22;880;52.452;8.656;2023-09-30T05:12:40;13.00;99.90
1766;DHT22;880;52.452;8.656;2023-09-30T05:15:13;13.00;99.90
1766;DHT22;880;52.452;8.656;2023-09-30T05:17:46;12.90;99.90
1766;DHT22;880;52.452;8.656;2023-09-30T05:20:15;12.90;99.90
1766;DHT22;880;52.452;8.656;2023-09-30T05:22:46;12.80;99.90
1766;DHT22;880;52.452;8.656;2023-09-30T05:25:16;12.90;99.90
1766;DHT22;880;52.452;8.656;2023-09-30T05:27:44;12.90;99.90
1766;DHT22;880;52.452;8.656;2023-09-30T05:30:15;12.80;99.90
1766;DHT22;880;52.452;8.656;2023-09-30T05:32:43;12.80;99.90
1766;DHT22;880;52.452;8.656;2023-09-30T05:35:10;12.80;99.90
1766;DHT22;880;52.452;8.656;2023-09-30T05:37:41;12.70;99.90
1766;DHT22;880;52.452;8.656;2023-09-30T05:40:09;12.80;99.90
1766;DHT22;880;52.452;8.656;2023-09-30T05:42:49;12.70;99.90
1766;DHT22;880;52.452;8.656;2023-09-30T05:45:19;12.60;99.90
1766;DHT22;880;52.452;8.656;2023-09-30T05:47:46;12.60;99.90
1766;DHT22;880;52.452;8.656;2023-09-30T05:50:18;12.50;99.90
1766;DHT22;880;52.452;8.656;2023-09-30T05:52:51;12.50;99.90
1766;DHT22;880;52.452;8.656;2023-09-30T05:55:19;12.60;99.90
1766;DHT22;880;52.452;8.656;2023-09-30T05:57:49;12.70;99.90
1766;DHT22;880;52.452;8.656;2023-09-30T06:00:17;12.70;99.90
1766;DHT22;880;52.452;8.656;2023-09-30T06:02:48;12.70;99.90
1766;DHT22;880;52.452;8.656;2023-09-30T06:05:16;12.80;99.90
1766;DHT22;880;52.452;8.656;2023-09-30T06:07:49;12.80;99.90
1766;DHT22;880;52.452;8.656;2023-09-30T06:10:16;12.80;99.90
1766;DHT22;880;52.452;8.656;2023-09-30T06:12:50;12.70;99.90
1766;DHT22;880;52.452;8.656;2023-09-30T06:15:25;12.70;99.90
1766;DHT22;880;52.452;8.656;2023-09-30T06:17:56;12.70;99.90
1766;DHT22;880;52.452;8.656;2023-09-30T06:20:26;12.70;99.90
1766;DHT22;880;52.452;8.656;2023-09-30T06:22:54;12.90;99.90
1766;DHT22;880;52.452;8.656;2023-09-30T06:25:22;13.00;99.90
1766;DHT22;880;52.452;8.656;2023-09-30T06:27:51;12.90;99.90
1766;DHT22;880;52.452;8.656;2023-09-30T06:30:18;13.00;99.90
1766;DHT22;880;52.452;8.656;2023-09-30T06:32:51;13.10;99.90
1766;DHT22;880;52.452;8.656;2023-09-30T06:35:20;13.10;99.90
1766;DHT22;880;52.452;8.656;2023-09-30T06:37:49;13.10;99.90
1766;DHT22;880;52.452;8.656;2023-09-30T06:40:16;13.10;99.90
1766;DHT22;880;52.452;8.656;2023-09-30T06:42:44;13.20;99.90
1766;DHT22;880;52.452;8.656;2023-09-30T06:45:11;13.20;99.90
1766;DHT22;880;52.452;8.656;2023-09-30T06:47:40;13.30;99.90
1766;DHT22;880;52.452;8.656;2023-09-30T06:50:12;13.40;99.90
1766;DHT22;880;52.452;8.656;2023-09-30T06:52:44;13.50;99.90
1766;DHT22;880;52.452;8.656;2023-09-30T06:55:16;13.60;99.90
1766;DHT22;880;52.452;8.656;2023-09-30T06:57:44;13.60;99.90
1766;DHT22;880;52.452;8.656;2023-09-30T07:00:13;13.70;99.90
1766;DHT22;880;52.452;8.656;2023-09-30T07:02:41;13.70;99.90
1766;DHT22;880;52.452;8.656;2023-09-30T07:05:10;13.70;99.90
1766;DHT22;880;52.452;8.656;2023-09-30T07:07:40;13.80;99.90
1766;DHT22;880;52.452;8.656;2023-09-30T07:10:09;14.00;99.90
1766;DHT22;880;52.452;8.656;2023-09-30T07:12:37;14.00;99.90
1766;DHT22;880;52.452;8.656;2023-09-30T07:15:07;14.10;99.90
1766;DHT22;880;52.452;8.656;2023-09-30T07:17:34;14.20;99.90
1766;DHT22;880;52.452;8.656;2023-09-30T07:20:03;14.30;99.90
1766;DHT22;880;52.452;8.656;2023-09-30T07:22:32;14.40;99.90
1766;DHT22;880;52.452;8.656;2023-09-30T07:25:18;14.40;99.90
1766;DHT22;880;52.452;8.656;2023-09-30T07:27:46;14.50;99.90
1766;DHT22;880;52.452;8.656;2023-09-30T07:30:13;14.60;99.90
1766;DHT22;880;52.452;8.656;2023-09-30T07:32:44;14.70;99.90
1766;DHT22;880;52.452;8.656;2023-09-30T07:35:12;14.70;99.90
1766;DHT22;880;52.452;8.656;2023-09-30T07:37:42;14.90;99.90
1766;DHT22;880;52.452;8.656;2023-09-30T07:40:11;14.90;99.90
1766;DHT22;880;52.452;8.656;2023-09-30T07:42:39;15.00;99.90
1766;DHT22;880;52.452;8.656;2023-09-30T07:45:06;15.10;99.90
1766;DHT22;880;52.452;8.656;2023-09-30T07:47:34;15.20;99.90
1766;DHT22;880;52.452;8.656;2023-09-30T07:50:01;15.40;99.90
1766;DHT22;880;52.452;8.656;2023-09-30T07:52:33;15.50;99.90
1766;DHT22;880;52.452;8.656;2023-09-30T07:55:00;15.60;99.90
1766;DHT22;880;52.452;8.656;2023-09-30T07:57:27;15.70;99.90
1766;DHT22;880;52.452;8.656;2023-09-30T07:59:54;15.80;99.90
1766;DHT22;880;52.452;8.656;2023-09-30T08:02:22;15.90;99.90
1766;DHT22;880;52.452;8.656;2023-09-30T08:04:51;15.90;99.90
1766;DHT22;880;52.452;8.656;2023-09-30T08:07:18;16.00;99.90
1766;DHT22;880;52.452;8.656;2023-09-30T08:09:47;16.10;99.90
1766;DHT22;880;52.452;8.656;2023-09-30T08:12:14;16.20;99.90
1766;DHT22;880;52.452;8.656;2023-09-30T08:14:41;16.30;99.90
1766;DHT22;880;52.452;8.656;2023-09-30T08:17:11;16.40;99.90
1766;DHT22;880;52.452;8.656;2023-09-30T08:19:38;16.50;99.90
1766;DHT22;880;52.452;8.656;2023-09-30T08:22:06;16.60;99.90
1766;DHT22;880;52.452;8.656;2023-09-30T08:24:33;16.60;99.90
1766;DHT22;880;52.452;8.656;2023-09-30T08:27:01;16.70;99.90
1766;DHT22;880;52.452;8.656;2023-09-30T08:29:28;16.70;99.90
1766;DHT22;880;52.452;8.656;2023-09-30T08:31:55;16.70;99.90
1766;DHT22;880;52.452;8.656;2023-09-30T08:34:22;16.70;99.90
1766;DHT22;880;52.452;8.656;2023-09-30T08:36:50;16.90;99.90
1766;DHT22;880;52.452;8.656;2023-09-30T08:39:18;17.10;99.90
1766;DHT22;880;52.452;8.656;2023-09-30T08:41:45;17.40;99.90
1766;DHT22;880;52.452;8.656;2023-09-30T08:44:13;17.70;99.90
1766;DHT22;880;52.452;8.656;2023-09-30T08:46:40;17.90;99.90
1766;DHT22;880;52.452;8.656;2023-09-30T08:49:09;18.10;99.90
1766;DHT22;880;52.452;8.656;2023-09-30T08:51:38;18.10;99.90
1766;DHT22;880;52.452;8.656;2023-09-30T08:54:06;18.10;99.90
1766;DHT22;880;52.452;8.656;2023-09-30T08:56:34;18.20;99.90
1766;DHT22;880;52.452;8.656;2023-09-30T08:59:02;18.20;99.90
1766;DHT22;880;52.452;8.656;2023-09-30T09:01:30;18.10;99.90
1766;DHT22;880;52.452;8.656;2023-09-30T09:03:58;18.10;99.90
1766;DHT22;880;52.452;8.656;2023-09-30T09:06:26;18.20;99.90
1766;DHT22;880;52.452;8.656;2023-09-30T09:08:53;18.30;99.90
1766;DHT22;880;52.452;8.656;2023-09-30T09:11:23;18.50;99.90
1766;DHT22;880;52.452;8.656;2023-09-30T09:13:54;18.80;99.90
1766;DHT22;880;52.452;8.656;2023-09-30T09:16:27;18.90;99.90
1766;DHT22;880;52.452;8.656;2023-09-30T09:18:54;18.90;99.90
1766;DHT22;880;52.452;8.656;2023-09-30T09:21:22;18.80;99.90
1766;DHT22;880;52.452;8.656;2023-09-30T09:23:51;18.90;99.90
1766;DHT22;880;52.452;8.656;2023-09-30T09:28:58;18.90;99.90
1766;DHT22;880;52.452;8.656;2023-09-30T09:31:34;19.00;99.90
1766;DHT22;880;52.452;8.656;2023-09-30T09:34:13;19.10;99.90
1766;DHT22;880;52.452;8.656;2023-09-30T09:36:42;19.20;99.90
1766;DHT22;880;52.452;8.656;2023-09-30T09:39:11;19.40;99.90
1766;DHT22;880;52.452;8.656;2023-09-30T09:41:52;19.60;99.90
1766;DHT22;880;52.452;8.656;2023-09-30T09:44:21;19.60;99.90
1766;DHT22;880;52.452;8.656;2023-09-30T09:46:49;19.60;99.90
1766;DHT22;880;52.452;8.656;2023-09-30T09:49:18;19.50;99.90
1766;DHT22;880;52.452;8.656;2023-09-30T09:51:47;19.50;99.90
1766;DHT22;880;52.452;8.656;2023-09-30T09:54:16;19.50;99.90
1766;DHT22;880;52.452;8.656;2023-09-30T09:56:48;19.60;99.90
1766;DHT22;880;52.452;8.656;2023-09-30T09:59:16;19.60;99.90
1766;DHT22;880;52.452;8.656;2023-09-30T10:01:43;19.70;99.90
1766;DHT22;880;52.452;8.656;2023-09-30T10:04:12;19.90;99.90
1766;DHT22;880;52.452;8.656;2023-09-30T10:06:45;19.90;99.90
1766;DHT22;880;52.452;8.656;2023-09-30T10:09:16;19.60;99.90
1766;DHT22;880;52.452;8.656;2023-09-30T10:11:45;19.50;99.90
1766;DHT22;880;52.452;8.656;2023-09-30T10:14:33;19.50;99.90
1766;DHT22;880;52.452;8.656;2023-09-30T10:17:00;19.70;99.90
1766;DHT22;880;52.452;8.656;2023-09-30T10:19:28;19.90;99.90
1766;DHT22;880;52.452;8.656;2023-09-30T10:24:56;19.30;99.90
1766;DHT22;880;52.452;8.656;2023-09-30T10:40:49;19.10;99.90
1766;DHT22;880;52.452;8.656;2023-09-30T10:43:33;19.20;99.90
1766;DHT22;880;52.452;8.656;2023-09-30T10:46:00;19.30;99.90
1766;DHT22;880;52.452;8.656;2023-09-30T10:51:00;19.50;99.90
1766;DHT22;880;52.452;8.656;2023-09-30T10:53:31;19.70;99.90
1766;DHT22;880;52.452;8.656;2023-09-30T10:55:59;19.80;99.90
1766;DHT22;880;52.452;8.656;2023-09-30T10:58:47;19.90;99.90
1766;DHT22;880;52.452;8.656;2023-09-30T11:01:22;20.10;99.90
1766;DHT22;880;52.452;8.656;2023-09-30T11:03:58;20.30;99.90
1766;DHT22;880;52.452;8.656;2023-09-30T11:06:29;20.40;99.90
1766;DHT22;880;52.452;8.656;2023-09-30T11:09:01;20.50;99.90
1766;DHT22;880;52.452;8.656;2023-09-30T11:11:36;20.70;99.90
1766;DHT22;880;52.452;8.656;2023-09-30T11:14:29;20.60;99.90
1766;DHT22;880;52.452;8.656;2023-09-30T11:16:59;20.60;99.90
1766;DHT22;880;52.452;8.656;2023-09-30T11:19:45;20.80;99.90
1766;DHT22;880;52.452;8.656;2023-09-30T11:22:14;20.80;99.90
1766;DHT22;880;52.452;8.656;2023-09-30T11:24:42;20.80;99.90
1766;DHT22;880;52.452;8.656;2023-09-30T11:27:09;20.60;99.90
1766;DHT22;880;52.452;8.656;2023-09-30T11:29:36;20.60;99.90
1766;DHT22;880;52.452;8.656;2023-09-30T11:32:03;20.40;99.90
1766;DHT22;880;52.452;8.656;2023-09-30T11:34:35;20.30;99.90
1766;DHT22;880;52.452;8.656;2023-09-30T11:37:04;20.20;99.90
1766;DHT22;880;52.452;8.656;2023-09-30T11:39:32;20.20;99.90
1766;DHT22;880;52.452;8.656;2023-09-30T11:42:00;20.00;99.90
1766;DHT22;880;52.452;8.656;2023-09-30T11:44:28;19.80;99.90
1766;DHT22;880;52.452;8.656;2023-09-30T11:47:01;19.60;99.90
1766;DHT22;880;52.452;8.656;2023-09-30T11:49:37;19.40;99.90
1766;DHT22;880;52.452;8.656;2023-09-30T11:52:11;19.40;99.90
1766;DHT22;880;52.452;8.656;2023-09-30T11:54:39;19.50;99.90
1766;DHT22;880;52.452;8.656;2023-09-30T11:57:12;19.50;99.90
1766;DHT22;880;52.452;8.656;2023-09-30T11:59:45;19.60;99.90
1766;DHT22;880;52.452;8.656;2023-09-30T12:02:16;19.60;99.90
1766;DHT22;880;52.452;8.656;2023-09-30T12:04:45;19.60;99.90
1766;DHT22;880;52.452;8.656;2023-09-30T12:07:14;19.80;99.90
1766;DHT22;880;52.452;8.656;2023-09-30T12:09:42;20.00;99.90
1766;DHT22;880;52.452;8.656;2023-09-30T12:12:09;20.50;99.90
1766;DHT22;880;52.452;8.656;2023-09-30T12:14:38;21.00;99.90
1766;DHT22;880;52.452;8.656;2023-09-30T12:17:06;21.30;99.90
1766;DHT22;880;52.452;8.656;2023-09-30T12:19:39;21.20;99.90
1766;DHT22;880;52.452;8.656;2023-09-30T12:22:07;21.30;99.90
1766;DHT22;880;52.452;8.656;2023-09-30T12:24:34;21.40;99.90
1766;DHT22;880;52.452;8.656;2023-09-30T12:27:01;21.60;99.90
1766;DHT22;880;52.452;8.656;2023-09-30T12:29:29;21.80;99.90
1766;DHT22;880;52.452;8.656;2023-09-30T12:31:56;21.80;99.90
1766;DHT22;880;52.452;8.656;2023-09-30T12:34:23;21.80;99.90
1766;DHT22;880;52.452;8.656;2023-09-30T12:36:53;21.80;99.90
1766;DHT22;880;52.452;8.656;2023-09-30T12:39:20;21.80;99.90
1766;DHT22;880;52.452;8.656;2023-09-30T12:41:52;21.80;99.90
1766;DHT22;880;52.452;8.656;2023-09-30T12:44:19;21.80;99.90
1766;DHT22;880;52.452;8.656;2023-09-30T12:46:46;21.90;99.90
1766;DHT22;880;52.452;8.656;2023-09-30T12:49:14;21.80;99.90
1766;DHT22;880;52.452;8.656;2023-09-30T12:51:42;21.50;99.90
1766;DHT22;880;52.452;8.656;2023-09-30T12:54:09;21.20;99.90
1766;DHT22;880;52.452;8.656;2023-09-30T12:56:37;21.20;99.90
1766;DHT22;880;52.452;8.656;2023-09-30T12:59:04;21.20;99.90
1766;DHT22;880;52.452;8.656;2023-09-30T13:01:31;21.30;99.90
1766;DHT22;880;52.452;8.656;2023-09-30T13:04:02;21.40;99.90
1766;DHT22;880;52.452;8.656;2023-09-30T13:06:29;21.60;99.90
1766;DHT22;880;52.452;8.656;2023-09-30T13:08:59;21.40;99.90
1766;DHT22;880;52.452;8.656;2023-09-30T13:11:27;21.40;99.90
1766;DHT22;880;52.452;8.656;2023-09-30T13:13:54;21.00;99.90
1766;DHT22;880;52.452;8.656;2023-09-30T13:16:21;20.90;99.90
1766;DHT22;880;52.452;8.656;2023-09-30T13:18:49;20.80;99.90
1766;DHT22;880;52.452;8.656;2023-09-30T13:21:19;20.70;99.90
1766;DHT22;880;52.452;8.656;2023-09-30T13:23:47;20.60;99.90
1766;DHT22;880;52.452;8.656;2023-09-30T13:26:14;20.40;99.90
1766;DHT22;880;52.452;8.656;2023-09-30T13:28:41;20.30;99.90
1766;DHT22;880;52.452;8.656;2023-09-30T13:31:08;20.20;99.90
1766;DHT22;880;52.452;8.656;2023-09-30T13:33:35;20.20;99.90
1766;DHT22;880;52.452;8.656;2023-09-30T13:36:02;20.20;99.90
1766;DHT22;880;52.452;8.656;2023-09-30T13:38:29;20.20;99.90
1766;DHT22;880;52.452;8.656;2023-09-30T13:40:56;20.20;99.90
1766;DHT22;880;52.452;8.656;2023-09-30T13:43:23;20.20;99.90
1766;DHT22;880;52.452;8.656;2023-09-30T13:45:50;20.10;99.90
1766;DHT22;880;52.452;8.656;2023-09-30T13:48:18;20.20;99.90
1766;DHT22;880;52.452;8.656;2023-09-30T13:50:45;20.50;99.90
1766;DHT22;880;52.452;8.656;2023-09-30T13:53:12;20.60;99.90
1766;DHT22;880;52.452;8.656;2023-09-30T13:55:39;20.80;99.90
1766;DHT22;880;52.452;8.656;2023-09-30T13:58:06;20.90;99.90
1766;DHT22;880;52.452;8.656;2023-09-30T14:00:33;21.00;99.90
1766;DHT22;880;52.452;8.656;2023-09-30T14:03:01;21.00;99.90
1766;DHT22;880;52.452;8.656;2023-09-30T14:05:28;21.00;99.90
1766;DHT22;880;52.452;8.656;2023-09-30T14:07:55;21.10;99.90
1766;DHT22;880;52.452;8.656;2023-09-30T14:10:22;21.20;99.90
1766;DHT22;880;52.452;8.656;2023-09-30T14:12:50;21.20;99.90
1766;DHT22;880;52.452;8.656;2023-09-30T14:15:17;21.40;99.90
1766;DHT22;880;52.452;8.656;2023-09-30T14:17:45;21.30;99.90
1766;DHT22;880;52.452;8.656;2023-09-30T14:20:12;21.30;99.90
1766;DHT22;880;52.452;8.656;2023-09-30T14:22:39;21.20;99.90
1766;DHT22;880;52.452;8.656;2023-09-30T14:25:07;21.10;99.90
1766;DHT22;880;52.452;8.656;2023-09-30T14:27:34;21.00;99.90
1766;DHT22;880;52.452;8.656;2023-09-30T14:30:01;21.00;99.90
1766;DHT22;880;52.452;8.656;2023-09-30T14:32:34;20.90;99.90
1766;DHT22;880;52.452;8.656;2023-09-30T14:35:02;20.80;99.90
1766;DHT22;880;52.452;8.656;2023-09-30T14:37:32;20.70;99.90
1766;DHT22;880;52.452;8.656;2023-09-30T14:39:59;21.00;99.90
1766;DHT22;880;52.452;8.656;2023-09-30T14:42:26;21.40;99.90
1766;DHT22;880;52.452;8.656;2023-09-30T14:44:56;21.70;99.90
1766;DHT22;880;52.452;8.656;2023-09-30T14:47:23;21.70;99.90
1766;DHT22;880;52.452;8.656;2023-09-30T14:49:50;21.70;99.90
1766;DHT22;880;52.452;8.656;2023-09-30T14:52:18;21.60;99.90
1766;DHT22;880;52.452;8.656;2023-09-30T14:54:46;21.60;99.90
1766;DHT22;880;52.452;8.656;2023-09-30T14:57:13;21.30;99.90
1766;DHT22;880;52.452;8.656;2023-09-30T14:59:42;21.10;99.90
1766;DHT22;880;52.452;8.656;2023-09-30T15:02:09;20.90;99.90
1766;DHT22;880;52.452;8.656;2023-09-30T15:04:37;20.80;99.90
1766;DHT22;880;52.452;8.656;2023-09-30T15:07:04;20.70;99.90
1766;DHT22;880;52.452;8.656;2023-09-30T15:09:32;20.80;99.90
1766;DHT22;880;52.452;8.656;2023-09-30T15:11:59;20.90;99.90
1766;DHT22;880;52.452;8.656;2023-09-30T15:14:27;21.00;99.90
1766;DHT22;880;52.452;8.656;2023-09-30T15:16:54;21.10;99.90
1766;DHT22;880;52.452;8.656;2023-09-30T15:19:21;21.10;99.90
1766;DHT22;880;52.452;8.656;2023-09-30T15:21:48;21.00;99.90
1766;DHT22;880;52.452;8.656;2023-09-30T15:24:16;20.90;99.90
1766;DHT22;880;52.452;8.656;2023-09-30T15:26:43;21.00;99.90
1766;DHT22;880;52.452;8.656;2023-09-30T15:29:11;20.90;99.90
1766;DHT22;880;52.452;8.656;2023-09-30T15:31:38;20.90;99.90
1766;DHT22;880;52.452;8.656;2023-09-30T15:34:05;20.70;99.90
1766;DHT22;880;52.452;8.656;2023-09-30T15:36:32;20.80;99.90
1766;DHT22;880;52.452;8.656;2023-09-30T15:39:00;20.80;99.90
1766;DHT22;880;52.452;8.656;2023-09-30T15:41:28;20.90;99.90
1766;DHT22;880;52.452;8.656;2023-09-30T15:43:58;20.90;99.90
1766;DHT22;880;52.452;8.656;2023-09-30T15:46:28;20.80;99.90
1766;DHT22;880;52.452;8.656;2023-09-30T15:48:55;20.70;99.90
1766;DHT22;880;52.452;8.656;2023-09-30T15:51:22;20.50;99.90
1766;DHT22;880;52.452;8.656;2023-09-30T15:53:49;20.50;99.90
1766;DHT22;880;52.452;8.656;2023-09-30T15:56:17;20.50;99.90
1766;DHT22;880;52.452;8.656;2023-09-30T15:58:44;20.40;99.90
1766;DHT22;880;52.452;8.656;2023-09-30T16:01:12;20.40;99.90
1766;DHT22;880;52.452;8.656;2023-09-30T16:03:39;20.40;99.90
1766;DHT22;880;52.452;8.656;2023-09-30T16:06:09;20.40;99.90
1766;DHT22;880;52.452;8.656;2023-09-30T16:08:36;20.30;99.90
1766;DHT22;880;52.452;8.656;2023-09-30T16:11:03;20.10;99.90
1766;DHT22;880;52.452;8.656;2023-09-30T16:13:30;20.10;99.90
1766;DHT22;880;52.452;8.656;2023-09-30T16:15:57;20.00;99.90
1766;DHT22;880;52.452;8.656;2023-09-30T16:18:24;19.80;99.90
1766;DHT22;880;52.452;8.656;2023-09-30T16:20:52;19.80;99.90
1766;DHT22;880;52.452;8.656;2023-09-30T16:23:21;19.70;99.90
1766;DHT22;880;52.452;8.656;2023-09-30T16:25:48;19.60;99.90
1766;DHT22;880;52.452;8.656;2023-09-30T16:28:15;19.50;99.90
1766;DHT22;880;52.452;8.656;2023-09-30T16:30:42;19.50;99.90
1766;DHT22;880;52.452;8.656;2023-09-30T16:33:11;19.50;99.90
1766;DHT22;880;52.452;8.656;2023-09-30T16:35:38;19.50;99.90
1766;DHT22;880;52.452;8.656;2023-09-30T16:38:05;19.50;99.90
1766;DHT22;880;52.452;8.656;2023-09-30T16:40:32;19.40;99.90
1766;DHT22;880;52.452;8.656;2023-09-30T16:42:59;19.40;99.90
1766;DHT22;880;52.452;8.656;2023-09-30T16:45:26;19.40;99.90
1766;DHT22;880;52.452;8.656;2023-09-30T16:47:53;19.50;99.90